Home > Products > Valid Products > TAF

000
FTUS43 KLSX 271735
TAFUIN
TAF
KUIN 271735Z 2718/2818 17015G24KT P6SM OVC020
     FM272000 17013G20KT P6SM SCT025 OVC040
     FM272200 16012G18KT P6SM VCTS OVC050CB
     FM280100 15010KT 6SM -SHRA VCTS OVC045CB
     FM280400 16010KT P6SM VCSH OVC040
     FM280900 19012KT P6SM BKN050=



000
FTUS43 KLSX 271735
TAFSUS
TAF
KSUS 271735Z 2718/2818 17010KT P6SM OVC020
     FM272000 17013G21KT P6SM -SHRA VCTS BKN025CB OVC100
     FM280100 17011KT P6SM VCSH BKN050
     FM280900 17012KT P6SM OVC070=



000
FTUS43 KLSX 271735
TAFCOU
TAF
KCOU 271735Z 2718/2818 17013G22KT P6SM SCT020 BKN035
      TEMPO 2718/2720 BKN020
     FM272000 16008KT P6SM SCT025 BKN040
     FM272200 15008KT P6SM VCTS OVC050CB
     FM280000 15009KT 5SM -SHRA VCTS OVC050CB
     FM280300 16011KT P6SM VCSH BKN070
     FM280900 17009KT P6SM BKN060=



000
FTUS43 KLSX 271706 AAD
TAFCOU
TAF AMD
KCOU 271706Z 2717/2812 18012G22KT P6SM SCT015 BKN035
      TEMPO 2717/2718 BKN015
     FM272100 17010KT 6SM -SHRA VCTS SCT050CB BKN100
     FM280300 16010KT P6SM SCT050 BKN100=



000
FTUS43 KLSX 271500 AAB
TAFSTL
TAF AMD
KSTL 271500Z 2715/2818 17010KT 6SM -SHRA FEW010 SCT050 BKN100
      TEMPO 2715/2716 4SM -RA BKN008
     FM271600 18012G20KT P6SM SCT040 BKN100
     FM272100 17014G22KT 6SM -SHRA VCTS SCT050CB BKN100
     FM280300 17012KT P6SM SCT050 BKN100=



000
FTUS43 KLSX 271415 AAA
TAFCOU
TAF AMD
KCOU 271415Z 2714/2812 16012G22KT P6SM SCT010 BKN050 OVC080
      TEMPO 2714/2716 BKN009
     FM271600 18012KT P6SM SCT015
     FM272100 17010KT 6SM -SHRA VCTS SCT050CB BKN100
     FM280300 16010KT P6SM SCT050 BKN100=



000
FTUS43 KLSX 271144
TAFSTL
TAF
KSTL 271144Z 2712/2818 17010KT 6SM -SHRA FEW015 SCT050 BKN100
      TEMPO 2712/2715 4SM SHRA BKN015
     FM271500 18012G20KT P6SM SCT040 BKN100
     FM272100 17014G22KT 6SM -SHRA VCTS SCT050CB BKN100
     FM280300 17012KT P6SM SCT050 BKN100=



000
FTUS43 KLSX 271144
TAFSUS
TAF
KSUS 271144Z 2712/2812 VRB05KT 6SM -SHRA SCT015 BKN050 OVC100
      TEMPO 2712/2715 4SM SHRA BKN015
     FM271500 16008KT P6SM SCT040 BKN100
     FM272100 17010KT 6SM -SHRA VCTS SCT050CB BKN100
     FM280300 17008KT P6SM SCT050 BKN100=



000
FTUS43 KLSX 271144
TAFUIN
TAF
KUIN 271144Z 2712/2812 15008KT P6SM -SHRA FEW020 SCT080 BKN120
      TEMPO 2712/2714 5SM -SHRA BKN020
     FM271500 16010KT P6SM SCT040 BKN100
     FM272100 18012KT 6SM -SHRA VCTS SCT050CB BKN100
     FM280300 17010KT P6SM SCT050 BKN100=



000
FTUS43 KLSX 271144
TAFCOU
TAF
KCOU 271144Z 2712/2812 14010KT P6SM SCT010 BKN050 OVC080
      TEMPO 2712/2715 BKN009
     FM271500 18012KT P6SM SCT040 BKN100
     FM272100 17010KT 6SM -SHRA VCTS SCT050CB BKN100
     FM280300 16010KT P6SM SCT050 BKN100=



000
FTUS43 KLSX 271116 AAD
TAFUIN
TAF AMD
KUIN 271116Z 2711/2806 15008KT P6SM -SHRA SCT020 OVC100
      TEMPO 2711/2714 5SM -SHRA BKN020
     FM271800 18014KT 6SM -SHRA VCTS SCT025 OVC050CB
     FM280000 18010KT P6SM BKN040=



000
FTUS43 KLSX 270956 AAD
TAFCOU
TAF AMD
KCOU 270956Z 2710/2806 12010KT P6SM VCSH SCT005 BKN020 OVC080
      TEMPO 2710/2712 4SM SHRA BKN005
     FM271200 15008KT P6SM SCT015 BKN080
     FM271500 15010KT 6SM -SHRA VCTS SCT030CB OVC080
     FM272100 18014KT P6SM VCTS BKN040CB
     FM280000 17010KT P6SM BKN050=



000
FTUS43 KLSX 270840 AAC
TAFSTL
TAF AMD
KSTL 270840Z 2709/2812 21008KT P6SM -SHRA VCTS FEW020 SCT040CB
      BKN080
      TEMPO 2709/2713 4SM SHRA BKN020
     FM271500 18014G22KT P6SM VCTS BKN040CB
     FM280000 17010KT P6SM BKN050=



000
FTUS43 KLSX 270700 AAB
TAFCOU
TAF AMD
KCOU 270700Z 2707/2806 12008KT 6SM -SHRA VCTS SCT030CB BKN060
      OVC120
      TEMPO 2708/2712 3SM SHRA BKN030
     FM271200 15008KT P6SM BKN080
     FM271500 15010KT 6SM -SHRA VCTS SCT030CB OVC080
     FM272100 18014KT P6SM VCTS BKN040CB
     FM280000 17010KT P6SM BKN050=



000
FTUS43 KLSX 270658 AAB
TAFSTL
TAF AMD
KSTL 270658Z 2707/2812 21008KT 6SM -SHRA VCTS SCT015 BKN080CB
      OVC120
      TEMPO 2707/2708 3SM SHRA BKN015
     FM270900 16007KT P6SM BKN080
     FM271500 18012KT 6SM -SHRA VCTS SCT025 OVC050CB
     FM272100 18014G22KT P6SM VCTS BKN040CB
     FM280000 17010KT P6SM BKN050=



000
FTUS43 KLSX 270657 AAA
TAFSTL
TAF AMD
KSTL 270657Z 2707/2812 21008KT 6SM -SHRA VCTS SCT015 BKN080CB
      OVC120
     FM270900 16007KT P6SM BKN080
     FM271500 18012KT 6SM -SHRA VCTS SCT025 OVC050CB
     FM272100 18014G22KT P6SM VCTS BKN040CB
     FM280000 17010KT P6SM BKN050=



000
FTUS43 KLSX 270110 CCA
TAFCOU
TAF COR
KCOU 270110Z 2701/2724 27008KT 6SM -SHRA VCTS BKN060CB
      TEMPO 2701/2703 3SM -TSRA BKN030CB
     FM270400 14007KT P6SM OVC080
     FM271800 15008KT P6SM VCSH SCT030 OVC080=



000
FTUS43 KLSX 262322
TAFUIN
TAF
KUIN 262322Z 2700/2724 15008KT P6SM OVC150
     FM270500 18007KT 6SM -SHRA VCTS BKN060CB
     FM271000 17008KT P6SM BKN060
     FM271700 16010KT P6SM VCSH BKN040=



000
FTUS43 KLSX 262322
TAFSTL
TAF
KSTL 262322Z 2700/2806 17007KT P6SM SCT250
     FM270500 19007KT P6SM VCTS BKN060CB
     FM271300 18010KT 6SM -SHRA VCTS SCT025 OVC050CB
     FM271800 18014G26KT P6SM VCTS BKN040CB
     FM280000 17009KT P6SM VCSH BKN050=



000
FTUS43 KLSX 262322
TAFSUS
TAF
KSUS 262322Z 2700/2724 17006KT P6SM SCT150
     FM270500 19007KT P6SM VCTS BKN060CB
     FM271300 18010KT 6SM -SHRA VCTS SCT025 OVC050CB
     FM271800 18014G26KT P6SM VCTS BKN040CB=



000
FTUS43 KLSX 262322
TAFCOU
TAF
KCOU 262322Z 2700/2724 12007KT P6SM VCTS BKN060CB
      TEMPO 2700/2702 3SM -TSRA BKN030CB
     FM270800 14007KT P6SM OVC080
     FM271800 15008KT P6SM VCSH SCT030 OVC080=



000
FTUS43 KLSX 261727
TAFSTL
TAF
KSTL 261727Z 2618/2724 18011G20KT P6SM FEW040 SCT150
     FM270200 18008KT P6SM SCT150
     FM270600 19007KT P6SM VCTS BKN060CB
     FM271300 18010KT 6SM -SHRA VCTS SCT025 OVC050CB
     FM271800 18012KT P6SM VCTS BKN040CB=



000
FTUS43 KLSX 261727
TAFCOU
TAF
KCOU 261727Z 2618/2718 18009KT P6SM SCT150
     FM262300 16013KT P6SM VCTS BKN060CB
     FM270400 17008KT 6SM -TSRA BKN060CB
     FM270800 14007KT P6SM VCTS OVC060CB
     FM271500 15008KT P6SM -SHRA VCTS SCT030 OVC050CB=



000
FTUS43 KLSX 261727
TAFSUS
TAF
KSUS 261727Z 2618/2718 19010G18KT P6SM FEW030 SCT150
     FM270000 18008KT P6SM SCT150
     FM270500 19007KT P6SM VCTS BKN060CB
     FM271300 18010KT 6SM -SHRA VCTS SCT025 OVC050CB=



000
FTUS43 KLSX 261727
TAFUIN
TAF
KUIN 261727Z 2618/2718 17009KT P6SM SCT150
     FM270000 14008KT P6SM SCT200
     FM270400 18007KT P6SM VCTS BKN060CB
     FM271300 18007KT 6SM -SHRA VCTS SCT030 BKN060CB=



000
FTUS43 KLSX 261406 AAB
TAFSTL
TAF AMD
KSTL 261406Z 2614/2718 14008KT 5SM -TSRA BKN040CB OVC080
     FM261500 21010KT P6SM SCT050 BKN100
     FM261800 18009KT P6SM SCT040 BKN250
     FM270800 19006KT P6SM -SHRA BKN040=



000
FTUS43 KLSX 260921 AAA
TAFSUS
TAF AMD
KSUS 260921Z 2609/2706 19007KT P6SM BKN060
      TEMPO 2613/2615 VRB25KT 5SM -TSRA BKN040CB
     FM262200 18009KT P6SM SCT120=



000
FTUS43 KLSX 260908 AAA
TAFSTL
TAF AMD
KSTL 260908Z 2609/2712 19007KT P6SM BKN070
      TEMPO 2613/2615 5SM -TSRA BKN040CB
     FM262200 18009KT P6SM SCT120
     FM270800 19005KT P6SM -SHRA BKN040=



000
FTUS43 KLSX 260520
TAFSUS
TAF
KSUS 260520Z 2606/2706 VRB04KT P6SM SCT200
     FM260900 19007KT P6SM BKN060
     FM262200 18009KT P6SM SCT120=



000
FTUS43 KLSX 252335
TAFSTL
TAF
KSTL 252335Z 2600/2706 19010KT P6SM SCT140
     FM260700 19007KT P6SM BKN120
     FM261400 19008KT P6SM BKN050=



000
FTUS43 KLSX 252335
TAFCOU
TAF
KCOU 252335Z 2600/2624 18010KT P6SM SCT150
     FM260600 17008KT P6SM BKN120
     FM261200 17008KT P6SM VCSH BKN030
     FM261600 17009KT P6SM BKN050=



000
FTUS43 KLSX 252335
TAFUIN
TAF
KUIN 252335Z 2600/2624 20010KT P6SM SCT200
     FM260800 18008KT P6SM -SHRA BKN060
      TEMPO 2608/2612 TSRA BKN030CB
     FM261300 19008KT P6SM BKN040
     FM262200 16008KT P6SM SCT250=



000
FTUS43 KLSX 252335
TAFSUS
TAF
KSUS 252335Z 2600/2624 18007KT P6SM SCT200
     FM260700 19005KT P6SM BKN150
     FM261200 20007KT P6SM BKN050=



000
FTUS43 KLSX 252109 AAA
TAFCOU
TAF AMD
KCOU 252109Z 2521/2618 VRB05KT P6SM BKN050
     FM260100 17009KT P6SM OVC050
     FM260900 19008KT P6SM VCTS SCT040CB
     FM261500 18008KT P6SM SCT050=



000
FTUS43 KLSX 251238 AAA
TAFSUS
TAF AMD
KSUS 251238Z 2513/2612 18007KT P6SM -SHRA VCTS BKN060CB
      TEMPO 2513/2514 4SM -TSRA BKN040CB
     FM251700 18010G18KT P6SM SCT040 BKN250
      TEMPO 2521/2524 4SM TSRA BKN040CB
     FM260100 18008KT P6SM BKN050=



000
FTUS43 KLSX 251044 AAB
TAFCOU
TAF AMD
KCOU 251044Z 2511/2606 16009KT P6SM -SHRA VCTS BKN060CB
      TEMPO 2511/2513 4SM -TSRA BR BKN040CB
     FM251600 17014G21KT P6SM BKN050
     FM260300 17009KT P6SM OVC050=



000
FTUS43 KLSX 250915 AAA
TAFCOU
TAF AMD
KCOU 250915Z 2509/2606 16006KT P6SM BKN250
     FM251000 14009KT P6SM -SHRA VCTS BKN050CB
     FM251600 17014G21KT P6SM BKN050
     FM260300 17009KT P6SM OVC050=



    US Dept of Commerce
    National Oceanic and Atmospheric Administration
    National Weather Service
    1325 East West Highway
    Silver Spring, MD 20910
    Page Author: NWS Internet Services Team
Disclaimer
Information Quality
Credits
Glossary
Privacy Policy
Freedom of Information Act (FOIA)
About Us
Career Opportunities